sensor_id;sensor_type;location;lat;lon;timestamp;pressure;altitude;pressure_sealevel;temperature;humidity
65359;BME280;52491;45.900;6.346;2022-12-18T00:00:28;94451.56;;;23.82;23.87
65359;BME280;52491;45.900;6.346;2022-12-18T00:02:55;94460.63;;;23.81;23.74
65359;BME280;52491;45.900;6.346;2022-12-18T00:05:21;94462.47;;;23.81;23.79
65359;BME280;52491;45.900;6.346;2022-12-18T00:07:46;94461.66;;;23.80;23.71
65359;BME280;52491;45.900;6.346;2022-12-18T00:10:12;94464.31;;;23.80;23.64
65359;BME280;52491;45.900;6.346;2022-12-18T00:12:38;94477.88;;;23.79;23.63
65359;BME280;52491;45.900;6.346;2022-12-18T00:15:04;94480.53;;;23.79;23.68
65359;BME280;52491;45.900;6.346;2022-12-18T00:17:29;94477.31;;;23.77;23.71
65359;BME280;52491;45.900;6.346;2022-12-18T00:19:55;94480.78;;;23.77;23.79
65359;BME280;52491;45.900;6.346;2022-12-18T00:22:21;94481.03;;;23.76;23.46
65359;BME280;52491;45.900;6.346;2022-12-18T00:24:46;94490.88;;;23.75;23.64
65359;BME280;52491;45.900;6.346;2022-12-18T00:27:12;94490.06;;;23.75;23.54
65359;BME280;52491;45.900;6.346;2022-12-18T00:29:37;94494.00;;;23.72;23.65
65359;BME280;52491;45.900;6.346;2022-12-18T00:32:06;94491.34;;;23.72;23.52
65359;BME280;52491;45.900;6.346;2022-12-18T00:34:31;94491.34;;;23.72;23.48
65359;BME280;52491;45.900;6.346;2022-12-18T00:36:57;94497.72;;;23.71;23.61
65359;BME280;52491;45.900;6.346;2022-12-18T00:39:23;94492.41;;;23.71;23.33
65359;BME280;52491;45.900;6.346;2022-12-18T00:41:48;94495.88;;;23.72;23.52
65359;BME280;52491;45.900;6.346;2022-12-18T00:44:32;94497.13;;;23.69;23.58
65359;BME280;52491;45.900;6.346;2022-12-18T00:46:58;94492.06;;;23.67;23.42
65359;BME280;52491;45.900;6.346;2022-12-18T00:49:23;94503.50;;;23.68;23.42
65359;BME280;52491;45.900;6.346;2022-12-18T00:51:50;94489.41;;;23.67;23.35
65359;BME280;52491;45.900;6.346;2022-12-18T00:54:16;94488.59;;;23.67;23.39
65359;BME280;52491;45.900;6.346;2022-12-18T00:56:42;94495.53;;;23.68;23.32
65359;BME280;52491;45.900;6.346;2022-12-18T00:59:08;94495.53;;;23.68;23.33
65359;BME280;52491;45.900;6.346;2022-12-18T01:01:34;94499.25;;;23.67;23.32
65359;BME280;52491;45.900;6.346;2022-12-18T01:04:01;94499.25;;;23.67;23.31
65359;BME280;52491;45.900;6.346;2022-12-18T01:06:28;94500.53;;;23.64;23.35
65359;BME280;52491;45.900;6.346;2022-12-18T01:08:54;94499.72;;;23.64;23.32
65359;BME280;52491;45.900;6.346;2022-12-18T01:11:21;94501.56;;;23.63;23.15
65359;BME280;52491;45.900;6.346;2022-12-18T01:13:47;94508.75;;;23.63;23.18
65359;BME280;52491;45.900;6.346;2022-12-18T01:16:14;94499.16;;;23.62;23.01
65359;BME280;52491;45.900;6.346;2022-12-18T01:18:40;94504.47;;;23.62;23.12
65359;BME280;52491;45.900;6.346;2022-12-18T01:21:11;94512.47;;;23.62;23.16
65359;BME280;52491;45.900;6.346;2022-12-18T01:23:37;94499.38;;;23.60;23.21
65359;BME280;52491;45.900;6.346;2022-12-18T01:26:13;94507.16;;;23.62;23.14
65359;BME280;52491;45.900;6.346;2022-12-18T01:28:39;94505.50;;;23.61;23.13
65359;BME280;52491;45.900;6.346;2022-12-18T01:31:18;94511.66;;;23.61;23.22
65359;BME280;52491;45.900;6.346;2022-12-18T01:33:45;94515.34;;;23.60;23.17
65359;BME280;52491;45.900;6.346;2022-12-18T01:36:26;94517.22;;;23.60;22.96
65359;BME280;52491;45.900;6.346;2022-12-18T01:38:53;94515.63;;;23.59;23.20
65359;BME280;52491;45.900;6.346;2022-12-18T01:41:27;94526.25;;;23.59;23.01
65359;BME280;52491;45.900;6.346;2022-12-18T01:47:20;94522.22;;;23.56;23.02
65359;BME280;52491;45.900;6.346;2022-12-18T01:49:47;94521.44;;;23.56;23.14
65359;BME280;52491;45.900;6.346;2022-12-18T01:52:13;94521.16;;;23.57;23.09
65359;BME280;52491;45.900;6.346;2022-12-18T01:54:39;94521.44;;;23.56;22.97
65359;BME280;52491;45.900;6.346;2022-12-18T01:57:05;94517.72;;;23.57;23.17
65359;BME280;52491;45.900;6.346;2022-12-18T01:59:32;94518.75;;;23.56;23.04
65359;BME280;52491;45.900;6.346;2022-12-18T02:01:59;94518.75;;;23.56;22.93
65359;BME280;52491;45.900;6.346;2022-12-18T02:04:26;94522.22;;;23.56;22.97
65359;BME280;52491;45.900;6.346;2022-12-18T02:07:07;94525.69;;;23.57;22.96
65359;BME280;52491;45.900;6.346;2022-12-18T02:09:43;94519.00;;;23.54;22.95
65359;BME280;52491;45.900;6.346;2022-12-18T02:12:19;94523.25;;;23.55;22.93
65359;BME280;52491;45.900;6.346;2022-12-18T02:15:00;94517.13;;;23.55;22.93
65359;BME280;52491;45.900;6.346;2022-12-18T02:17:38;94525.59;;;23.52;22.97
65359;BME280;52491;45.900;6.346;2022-12-18T02:22:58;94525.03;;;23.50;22.93
65359;BME280;52491;45.900;6.346;2022-12-18T02:28:26;94522.63;;;23.48;22.88
65359;BME280;52491;45.900;6.346;2022-12-18T02:30:56;94534.06;;;23.49;23.06
65359;BME280;52491;45.900;6.346;2022-12-18T02:33:25;94543.66;;;23.50;22.85
65359;BME280;52491;45.900;6.346;2022-12-18T02:35:53;94540.19;;;23.49;22.86
65359;BME280;52491;45.900;6.346;2022-12-18T02:38:21;94538.34;;;23.50;22.89
65359;BME280;52491;45.900;6.346;2022-12-18T02:40:48;94539.97;;;23.51;22.62
65359;BME280;52491;45.900;6.346;2022-12-18T02:43:16;94535.66;;;23.50;22.75
65359;BME280;52491;45.900;6.346;2022-12-18T02:45:50;94537.31;;;23.51;22.76
65359;BME280;52491;45.900;6.346;2022-12-18T02:48:24;94539.41;;;23.49;22.77
65359;BME280;52491;45.900;6.346;2022-12-18T02:51:09;94544.72;;;23.49;22.82
65359;BME280;52491;45.900;6.346;2022-12-18T02:53:48;94543.66;;;23.50;22.72
65359;BME280;52491;45.900;6.346;2022-12-18T02:56:25;94544.22;;;23.52;22.73
65359;BME280;52491;45.900;6.346;2022-12-18T02:59:17;94549.56;;;23.52;22.73
65359;BME280;52491;45.900;6.346;2022-12-18T03:02:21;94541.81;;;23.50;22.76
65359;BME280;52491;45.900;6.346;2022-12-18T03:07:25;94543.44;;;23.51;22.75
65359;BME280;52491;45.900;6.346;2022-12-18T03:09:53;94536.25;;;23.52;22.65
65359;BME280;52491;45.900;6.346;2022-12-18T03:15:13;94544.81;;;23.54;22.99
65359;BME280;52491;45.900;6.346;2022-12-18T03:17:42;94551.41;;;23.51;22.76
65359;BME280;52491;45.900;6.346;2022-12-18T03:20:16;94548.75;;;23.51;22.71
65359;BME280;52491;45.900;6.346;2022-12-18T03:22:45;94548.19;;;23.49;22.83
65359;BME280;52491;45.900;6.346;2022-12-18T03:25:14;94548.19;;;23.49;22.87
65359;BME280;52491;45.900;6.346;2022-12-18T03:27:49;94550.84;;;23.49;22.91
65359;BME280;52491;45.900;6.346;2022-12-18T03:30:17;94553.75;;;23.48;22.87
65359;BME280;52491;45.900;6.346;2022-12-18T03:33:07;94552.69;;;23.49;22.87
65359;BME280;52491;45.900;6.346;2022-12-18T03:35:39;94559.88;;;23.48;23.09
65359;BME280;52491;45.900;6.346;2022-12-18T03:38:07;94551.09;;;23.48;23.10
65359;BME280;52491;45.900;6.346;2022-12-18T03:46:15;94555.63;;;23.47;23.19
65359;BME280;52491;45.900;6.346;2022-12-18T03:48:46;94554.56;;;23.48;23.26
65359;BME280;52491;45.900;6.346;2022-12-18T03:53:53;94555.63;;;23.47;23.23
65359;BME280;52491;45.900;6.346;2022-12-18T03:56:22;94566.81;;;23.49;23.26
65359;BME280;52491;45.900;6.346;2022-12-18T03:58:50;94562.53;;;23.48;23.11
65359;BME280;52491;45.900;6.346;2022-12-18T04:01:20;94559.06;;;23.48;22.97
65359;BME280;52491;45.900;6.346;2022-12-18T04:03:49;94563.59;;;23.47;23.10
65359;BME280;52491;45.900;6.346;2022-12-18T04:06:16;94567.28;;;23.46;23.06
65359;BME280;52491;45.900;6.346;2022-12-18T04:08:42;94565.69;;;23.45;23.15
65359;BME280;52491;45.900;6.346;2022-12-18T04:11:09;94563.03;;;23.45;22.99
65359;BME280;52491;45.900;6.346;2022-12-18T04:13:36;94562.22;;;23.44;23.11
65359;BME280;52491;45.900;6.346;2022-12-18T04:16:02;94564.06;;;23.44;23.04
65359;BME280;52491;45.900;6.346;2022-12-18T04:18:28;94568.56;;;23.43;23.05
65359;BME280;52491;45.900;6.346;2022-12-18T04:20:54;94573.91;;;23.43;23.11
65359;BME280;52491;45.900;6.346;2022-12-18T04:23:19;94561.66;;;23.42;23.04
65359;BME280;52491;45.900;6.346;2022-12-18T04:25:47;94564.31;;;23.42;23.05
65359;BME280;52491;45.900;6.346;2022-12-18T04:28:13;94562.69;;;23.41;23.07
65359;BME280;52491;45.900;6.346;2022-12-18T04:30:39;94568.03;;;23.41;23.07
65359;BME280;52491;45.900;6.346;2022-12-18T04:33:11;94571.22;;;23.43;23.07
65359;BME280;52491;45.900;6.346;2022-12-18T04:35:39;94572.28;;;23.42;22.93
65359;BME280;52491;45.900;6.346;2022-12-18T04:38:06;94577.63;;;23.42;23.10
65359;BME280;52491;45.900;6.346;2022-12-18T04:40:33;94579.22;;;23.43;23.11
65359;BME280;52491;45.900;6.346;2022-12-18T04:43:02;94582.69;;;23.44;23.09
65359;BME280;52491;45.900;6.346;2022-12-18T04:45:29;94580.00;;;23.44;23.01
65359;BME280;52491;45.900;6.346;2022-12-18T04:47:57;94587.19;;;23.43;23.03
65359;BME280;52491;45.900;6.346;2022-12-18T04:50:23;94590.91;;;23.42;23.07
65359;BME280;52491;45.900;6.346;2022-12-18T04:52:48;94587.19;;;23.43;23.12
65359;BME280;52491;45.900;6.346;2022-12-18T04:55:14;94589.06;;;23.43;22.98
65359;BME280;52491;45.900;6.346;2022-12-18T04:57:39;94587.19;;;23.43;22.90
65359;BME280;52491;45.900;6.346;2022-12-18T05:00:06;94595.19;;;23.43;22.90
65359;BME280;52491;45.900;6.346;2022-12-18T05:02:32;94592.28;;;23.45;22.95
65359;BME280;52491;45.900;6.346;2022-12-18T05:04:57;94597.84;;;23.43;22.92
65359;BME280;52491;45.900;6.346;2022-12-18T05:07:23;94601.31;;;23.44;22.93
65359;BME280;52491;45.900;6.346;2022-12-18T05:09:49;94598.91;;;23.42;22.95
65359;BME280;52491;45.900;6.346;2022-12-18T05:12:14;94604.22;;;23.42;22.92
65359;BME280;52491;45.900;6.346;2022-12-18T05:14:40;94610.34;;;23.43;22.92
65359;BME280;52491;45.900;6.346;2022-12-18T05:17:05;94607.69;;;23.43;22.70
65359;BME280;52491;45.900;6.346;2022-12-18T05:19:31;94610.13;;;23.44;22.93
65359;BME280;52491;45.900;6.346;2022-12-18T05:21:56;94605.81;;;23.43;22.94
65359;BME280;52491;45.900;6.346;2022-12-18T05:24:23;94602.13;;;23.44;22.93
65359;BME280;52491;45.900;6.346;2022-12-18T05:26:48;94615.44;;;23.44;22.89
65359;BME280;52491;45.900;6.346;2022-12-18T05:29:14;94618.91;;;23.45;22.94
65359;BME280;52491;45.900;6.346;2022-12-18T05:31:40;94615.44;;;23.44;22.69
65359;BME280;52491;45.900;6.346;2022-12-18T05:34:06;94618.91;;;23.45;22.87
65359;BME280;52491;45.900;6.346;2022-12-18T05:36:32;94618.09;;;23.44;22.92
65359;BME280;52491;45.900;6.346;2022-12-18T05:38:57;94623.16;;;23.46;22.69
65359;BME280;52491;45.900;6.346;2022-12-18T05:41:23;94618.91;;;23.45;22.72
65359;BME280;52491;45.900;6.346;2022-12-18T05:43:49;94626.63;;;23.46;22.84
65359;BME280;52491;45.900;6.346;2022-12-18T05:46:16;94629.28;;;23.46;22.94
65359;BME280;52491;45.900;6.346;2022-12-18T05:48:43;94633.59;;;23.48;22.77
65359;BME280;52491;45.900;6.346;2022-12-18T05:51:14;94635.44;;;23.47;22.75
65359;BME280;52491;45.900;6.346;2022-12-18T05:53:40;94631.97;;;23.46;22.87
65359;BME280;52491;45.900;6.346;2022-12-18T05:56:09;94638.13;;;23.47;22.77
65359;BME280;52491;45.900;6.346;2022-12-18T05:58:35;94644.25;;;23.48;22.71
65359;BME280;52491;45.900;6.346;2022-12-18T06:01:13;94639.72;;;23.48;22.98
65359;BME280;52491;45.900;6.346;2022-12-18T06:03:39;94637.28;;;23.46;22.78
65359;BME280;52491;45.900;6.346;2022-12-18T06:06:13;94639.72;;;23.48;22.69
65359;BME280;52491;45.900;6.346;2022-12-18T06:08:39;94638.91;;;23.48;22.76
65359;BME280;52491;45.900;6.346;2022-12-18T06:11:05;94645.03;;;23.48;22.64
65359;BME280;52491;45.900;6.346;2022-12-18T06:13:30;94644.47;;;23.46;22.67
65359;BME280;52491;45.900;6.346;2022-12-18T06:15:56;94653.25;;;23.46;22.76
65359;BME280;52491;45.900;6.346;2022-12-18T06:18:21;94651.41;;;23.47;22.75
65359;BME280;52491;45.900;6.346;2022-12-18T06:20:55;94661.00;;;23.48;22.75
65359;BME280;52491;45.900;6.346;2022-12-18T06:23:21;94654.09;;;23.47;22.74
65359;BME280;52491;45.900;6.346;2022-12-18T06:25:46;94655.09;;;23.46;22.76
65359;BME280;52491;45.900;6.346;2022-12-18T06:28:12;94654.31;;;23.45;22.83
65359;BME280;52491;45.900;6.346;2022-12-18T06:30:37;94666.56;;;23.46;22.72
65359;BME280;52491;45.900;6.346;2022-12-18T06:33:03;94659.41;;;23.47;22.78
65359;BME280;52491;45.900;6.346;2022-12-18T06:35:29;94667.38;;;23.47;22.80
65359;BME280;52491;45.900;6.346;2022-12-18T06:37:54;94667.13;;;23.49;22.76
65359;BME280;52491;45.900;6.346;2022-12-18T06:40:20;94671.66;;;23.48;22.89
65359;BME280;52491;45.900;6.346;2022-12-18T06:42:46;94677.78;;;23.49;22.85
65359;BME280;52491;45.900;6.346;2022-12-18T06:45:17;94682.28;;;23.48;22.70
65359;BME280;52491;45.900;6.346;2022-12-18T06:47:42;94680.69;;;23.47;22.83
65359;BME280;52491;45.900;6.346;2022-12-18T06:50:08;94681.50;;;23.48;22.84
65359;BME280;52491;45.900;6.346;2022-12-18T06:52:34;94697.47;;;23.48;22.78
65359;BME280;52491;45.900;6.346;2022-12-18T06:54:59;94693.75;;;23.49;22.94
65359;BME280;52491;45.900;6.346;2022-12-18T06:57:25;94696.66;;;23.47;22.83
65359;BME280;52491;45.900;6.346;2022-12-18T06:59:51;94701.16;;;23.46;22.92
65359;BME280;52491;45.900;6.346;2022-12-18T07:02:17;94704.66;;;23.47;22.83
65359;BME280;52491;45.900;6.346;2022-12-18T07:06:13;94708.91;;;23.48;23.03
65359;BME280;52491;45.900;6.346;2022-12-18T07:08:40;94705.44;;;23.48;23.22
65359;BME280;52491;45.900;6.346;2022-12-18T07:11:05;94714.22;;;23.48;23.26
65359;BME280;52491;45.900;6.346;2022-12-18T07:13:31;94721.97;;;23.50;23.36
65359;BME280;52491;45.900;6.346;2022-12-18T07:16:06;94721.97;;;23.50;23.41
65359;BME280;52491;45.900;6.346;2022-12-18T07:18:32;94727.28;;;23.50;23.41
65359;BME280;52491;45.900;6.346;2022-12-18T07:20:57;94731.00;;;23.49;23.33
65359;BME280;52491;45.900;6.346;2022-12-18T07:23:23;94735.53;;;23.48;23.43
65359;BME280;52491;45.900;6.346;2022-12-18T07:25:48;94743.25;;;23.50;23.43
65359;BME280;52491;45.900;6.346;2022-12-18T07:28:14;94747.78;;;23.49;23.49
65359;BME280;52491;45.900;6.346;2022-12-18T07:30:40;94745.13;;;23.49;23.64
65359;BME280;52491;45.900;6.346;2022-12-18T07:33:06;94748.56;;;23.50;23.52
65359;BME280;52491;45.900;6.346;2022-12-18T07:35:34;94747.56;;;23.51;23.39
65359;BME280;52491;45.900;6.346;2022-12-18T07:38:03;94742.22;;;23.51;23.58
65359;BME280;52491;45.900;6.346;2022-12-18T07:40:29;94741.44;;;23.50;23.47
65359;BME280;52491;45.900;6.346;2022-12-18T07:42:55;94749.41;;;23.50;23.76
65359;BME280;52491;45.900;6.346;2022-12-18T07:45:21;94746.50;;;23.52;23.79
65359;BME280;52491;45.900;6.346;2022-12-18T07:47:47;94751.81;;;23.52;23.69
65359;BME280;52491;45.900;6.346;2022-12-18T07:50:12;94748.13;;;23.53;23.70
65359;BME280;52491;45.900;6.346;2022-12-18T07:52:38;94753.47;;;23.53;23.60
65359;BME280;52491;45.900;6.346;2022-12-18T07:55:04;94764.91;;;23.53;23.58
65359;BME280;52491;45.900;6.346;2022-12-18T07:57:30;94756.13;;;23.53;23.70
65359;BME280;52491;45.900;6.346;2022-12-18T07:59:56;94764.91;;;23.53;23.54
65359;BME280;52491;45.900;6.346;2022-12-18T08:02:21;94759.34;;;23.55;23.91
65359;BME280;52491;45.900;6.346;2022-12-18T08:04:47;94760.38;;;23.54;23.86
65359;BME280;52491;45.900;6.346;2022-12-18T08:07:12;94764.66;;;23.55;23.97
65359;BME280;52491;45.900;6.346;2022-12-18T08:09:38;94755.88;;;23.54;23.32
65359;BME280;52491;45.900;6.346;2022-12-18T08:12:04;94757.72;;;23.54;22.92
65359;BME280;52491;45.900;6.346;2022-12-18T08:14:30;94757.16;;;23.52;22.87
65359;BME280;52491;45.900;6.346;2022-12-18T08:16:55;94752.88;;;23.51;23.05
65359;BME280;52491;45.900;6.346;2022-12-18T08:19:21;94750.81;;;23.53;22.92
65359;BME280;52491;45.900;6.346;2022-12-18T08:21:46;94749.16;;;23.52;23.05
65359;BME280;52491;45.900;6.346;2022-12-18T08:24:12;94756.13;;;23.53;23.10
65359;BME280;52491;45.900;6.346;2022-12-18T08:26:38;94745.69;;;23.51;23.33
65359;BME280;52491;45.900;6.346;2022-12-18T08:29:03;94747.31;;;23.52;23.21
65359;BME280;52491;45.900;6.346;2022-12-18T08:31:30;94743.84;;;23.52;23.30
65359;BME280;52491;45.900;6.346;2022-12-18T08:33:56;94743.03;;;23.51;23.31
65359;BME280;52491;45.900;6.346;2022-12-18T08:36:23;94742.22;;;23.51;23.30
65359;BME280;52491;45.900;6.346;2022-12-18T08:38:49;94746.75;;;23.50;22.97
65359;BME280;52491;45.900;6.346;2022-12-18T08:41:16;94736.91;;;23.51;23.13
65359;BME280;52491;45.900;6.346;2022-12-18T08:43:42;94743.03;;;23.51;23.00
65359;BME280;52491;45.900;6.346;2022-12-18T08:46:27;94745.69;;;23.51;22.85
65359;BME280;52491;45.900;6.346;2022-12-18T08:48:56;94744.91;;;23.51;22.98
65359;BME280;52491;45.900;6.346;2022-12-18T08:51:22;94730.53;;;23.52;23.08
65359;BME280;52491;45.900;6.346;2022-12-18T08:53:47;94733.19;;;23.52;23.03
65359;BME280;52491;45.900;6.346;2022-12-18T08:56:14;94734.25;;;23.51;23.15
65359;BME280;52491;45.900;6.346;2022-12-18T08:58:40;94738.50;;;23.52;23.12
65359;BME280;52491;45.900;6.346;2022-12-18T09:01:09;94743.84;;;23.52;23.22
65359;BME280;52491;45.900;6.346;2022-12-18T09:03:35;94738.78;;;23.50;23.11
65359;BME280;52491;45.900;6.346;2022-12-18T09:06:01;94734.47;;;23.49;23.31
65359;BME280;52491;45.900;6.346;2022-12-18T09:08:27;94737.94;;;23.50;23.41
65359;BME280;52491;45.900;6.346;2022-12-18T09:10:53;94732.63;;;23.50;23.37
65359;BME280;52491;45.900;6.346;2022-12-18T09:13:20;94731.00;;;23.49;23.47
65359;BME280;52491;45.900;6.346;2022-12-18T09:15:48;94724.63;;;23.50;23.44
65359;BME280;52491;45.900;6.346;2022-12-18T09:18:15;94735.06;;;23.51;23.27
65359;BME280;52491;45.900;6.346;2022-12-18T09:20:42;94731.81;;;23.49;23.38
65359;BME280;52491;45.900;6.346;2022-12-18T09:23:08;94733.66;;;23.49;23.58
65359;BME280;52491;45.900;6.346;2022-12-18T09:25:35;94739.78;;;23.49;23.58
65359;BME280;52491;45.900;6.346;2022-12-18T09:28:12;94743.03;;;23.51;23.64
65359;BME280;52491;45.900;6.346;2022-12-18T09:30:46;94734.84;;;23.53;23.50
65359;BME280;52491;45.900;6.346;2022-12-18T09:33:12;94738.84;;;23.55;23.54
65359;BME280;52491;45.900;6.346;2022-12-18T09:35:38;94741.06;;;23.58;23.35
65359;BME280;52491;45.900;6.346;2022-12-18T09:38:04;94736.88;;;23.62;23.41
65359;BME280;52491;45.900;6.346;2022-12-18T09:40:36;94748.78;;;23.60;23.09
65359;BME280;52491;45.900;6.346;2022-12-18T09:43:05;94748.56;;;23.61;23.36
65359;BME280;52491;45.900;6.346;2022-12-18T09:45:44;94736.06;;;23.62;22.52
65359;BME280;52491;45.900;6.346;2022-12-18T09:48:19;94740.34;;;23.63;23.00
65359;BME280;52491;45.900;6.346;2022-12-18T09:50:47;94732.94;;;23.65;23.09
65359;BME280;52491;45.900;6.346;2022-12-18T09:53:21;94739.63;;;23.67;23.09
65359;BME280;52491;45.900;6.346;2022-12-18T09:55:48;94740.22;;;23.70;23.19
65359;BME280;52491;45.900;6.346;2022-12-18T09:58:32;94744.84;;;23.74;23.18
65359;BME280;52491;45.900;6.346;2022-12-18T10:01:00;94739.50;;;23.74;23.20
65359;BME280;52491;45.900;6.346;2022-12-18T10:03:26;94731.84;;;23.78;23.23
65359;BME280;52491;45.900;6.346;2022-12-18T10:08:51;94724.53;;;23.85;23.16
65359;BME280;52491;45.900;6.346;2022-12-18T10:11:34;94721.31;;;23.83;23.20
65359;BME280;52491;45.900;6.346;2022-12-18T10:19:53;94722.19;;;23.88;23.18
65359;BME280;52491;45.900;6.346;2022-12-18T10:25:23;94718.50;;;23.89;23.18
65359;BME280;52491;45.900;6.346;2022-12-18T10:27:57;94723.59;;;23.91;23.35
65359;BME280;52491;45.900;6.346;2022-12-18T10:30:26;94719.91;;;23.92;23.16
65359;BME280;52491;45.900;6.346;2022-12-18T10:32:52;94725.75;;;23.94;23.33
65359;BME280;52491;45.900;6.346;2022-12-18T10:35:24;94723.94;;;23.95;23.30
65359;BME280;52491;45.900;6.346;2022-12-18T10:43:25;94724.84;;;24.00;23.57
65359;BME280;52491;45.900;6.346;2022-12-18T10:51:33;94731.59;;;24.08;23.66
65359;BME280;52491;45.900;6.346;2022-12-18T10:54:02;94728.13;;;24.07;23.49
65359;BME280;52491;45.900;6.346;2022-12-18T10:56:30;94728.03;;;24.02;22.97
65359;BME280;52491;45.900;6.346;2022-12-18T11:01:27;94728.31;;;24.01;23.45
65359;BME280;52491;45.900;6.346;2022-12-18T11:06:21;94724.91;;;24.05;23.44
65359;BME280;52491;45.900;6.346;2022-12-18T11:09:02;94728.72;;;24.09;23.47
65359;BME280;52491;45.900;6.346;2022-12-18T11:11:28;94720.47;;;24.11;23.49
65359;BME280;52491;45.900;6.346;2022-12-18T11:14:05;94712.81;;;24.15;23.77
65359;BME280;52491;45.900;6.346;2022-12-18T11:16:42;94722.09;;;24.12;23.22
65359;BME280;52491;45.900;6.346;2022-12-18T11:19:32;94710.38;;;24.13;23.73
65359;BME280;52491;45.900;6.346;2022-12-18T11:21:58;94712.25;;;24.12;23.90
65359;BME280;52491;45.900;6.346;2022-12-18T11:24:35;94709.09;;;24.16;23.60
65359;BME280;52491;45.900;6.346;2022-12-18T11:27:04;94705.06;;;24.13;23.95
65359;BME280;52491;45.900;6.346;2022-12-18T11:29:36;94706.13;;;24.12;23.85
65359;BME280;52491;45.900;6.346;2022-12-18T11:34:42;94701.00;;;24.10;24.12
65359;BME280;52491;45.900;6.346;2022-12-18T11:37:11;94707.41;;;24.09;24.10
65359;BME280;52491;45.900;6.346;2022-12-18T11:39:53;94702.66;;;24.11;24.28
65359;BME280;52491;45.900;6.346;2022-12-18T11:42:27;94704.47;;;24.11;24.38
65359;BME280;52491;45.900;6.346;2022-12-18T11:45:08;94692.00;;;24.11;24.80
65359;BME280;52491;45.900;6.346;2022-12-18T11:50:31;94681.34;;;24.11;25.01
65359;BME280;52491;45.900;6.346;2022-12-18T11:52:59;94683.75;;;24.13;25.18
65359;BME280;52491;45.900;6.346;2022-12-18T12:04:14;94665.00;;;24.08;25.46
65359;BME280;52491;45.900;6.346;2022-12-18T12:06:58;94662.69;;;24.11;25.16
65359;BME280;52491;45.900;6.346;2022-12-18T12:12:50;94649.91;;;24.13;25.54
65359;BME280;52491;45.900;6.346;2022-12-18T12:26:27;94635.88;;;24.18;25.55
65359;BME280;52491;45.900;6.346;2022-12-18T12:29:05;94631.34;;;24.19;25.64
65359;BME280;52491;45.900;6.346;2022-12-18T12:32:36;94617.22;;;24.18;25.41
65359;BME280;52491;45.900;6.346;2022-12-18T12:40:34;94614.31;;;24.20;25.65
65359;BME280;52491;45.900;6.346;2022-12-18T12:43:19;94614.06;;;24.21;25.59
65359;BME280;52491;45.900;6.346;2022-12-18T12:46:06;94609.31;;;24.23;25.77
65359;BME280;52491;45.900;6.346;2022-12-18T12:51:01;94610.44;;;24.27;25.86
65359;BME280;52491;45.900;6.346;2022-12-18T12:53:34;94607.53;;;24.29;25.63
65359;BME280;52491;45.900;6.346;2022-12-18T12:56:01;94603.00;;;24.29;25.50
65359;BME280;52491;45.900;6.346;2022-12-18T13:01:49;94613.28;;;24.21;25.08
65359;BME280;52491;45.900;6.346;2022-12-18T15:56:45;94656.09;;;21.27;28.99
65359;BME280;52491;45.900;6.346;2022-12-18T15:59:29;94655.13;;;21.70;28.64
65359;BME280;52491;45.900;6.346;2022-12-18T16:01:55;94646.44;;;22.04;28.41
65359;BME280;52491;45.900;6.346;2022-12-18T16:04:21;94653.53;;;22.34;28.28
65359;BME280;52491;45.900;6.346;2022-12-18T16:06:48;94651.91;;;22.56;27.73
65359;BME280;52491;45.900;6.346;2022-12-18T16:09:14;94653.19;;;22.77;27.63
65359;BME280;52491;45.900;6.346;2022-12-18T16:11:42;94645.88;;;22.96;27.34
65359;BME280;52491;45.900;6.346;2022-12-18T16:14:19;94651.28;;;23.13;27.19
65359;BME280;52491;45.900;6.346;2022-12-18T16:16:47;94644.31;;;23.24;26.66
65359;BME280;52491;45.900;6.346;2022-12-18T16:19:13;94642.06;;;23.33;26.72
65359;BME280;52491;45.900;6.346;2022-12-18T16:21:39;94645.19;;;23.41;26.63
65359;BME280;52491;45.900;6.346;2022-12-18T16:24:05;94656.50;;;23.49;26.39
65359;BME280;52491;45.900;6.346;2022-12-18T16:26:30;94657.16;;;23.56;26.39
65359;BME280;52491;45.900;6.346;2022-12-18T16:28:56;94658.06;;;23.61;26.33
65359;BME280;52491;45.900;6.346;2022-12-18T16:31:22;94661.06;;;23.65;26.14
65359;BME280;52491;45.900;6.346;2022-12-18T16:33:47;94668.34;;;23.70;26.28
65359;BME280;52491;45.900;6.346;2022-12-18T16:36:13;94676.53;;;23.68;25.45
65359;BME280;52491;45.900;6.346;2022-12-18T16:38:38;94681.66;;;23.70;25.79
65359;BME280;52491;45.900;6.346;2022-12-18T16:41:19;94671.34;;;23.73;25.26
65359;BME280;52491;45.900;6.346;2022-12-18T16:44:03;94676.41;;;23.75;25.43
65359;BME280;52491;45.900;6.346;2022-12-18T16:46:29;94680.47;;;23.77;25.55
65359;BME280;52491;45.900;6.346;2022-12-18T16:48:57;94680.81;;;23.81;25.43
65359;BME280;52491;45.900;6.346;2022-12-18T16:51:22;94677.09;;;23.82;25.27
65359;BME280;52491;45.900;6.346;2022-12-18T16:53:48;94672.56;;;23.82;25.54
65359;BME280;52491;45.900;6.346;2022-12-18T16:56:13;94670.47;;;23.84;25.46
65359;BME280;52491;45.900;6.346;2022-12-18T16:58:39;94681.72;;;23.86;25.50
65359;BME280;52491;45.900;6.346;2022-12-18T17:01:08;94673.47;;;23.88;25.41
65359;BME280;52491;45.900;6.346;2022-12-18T17:03:34;94687.59;;;23.88;25.35
65359;BME280;52491;45.900;6.346;2022-12-18T17:06:04;94684.69;;;23.90;25.40
65359;BME280;52491;45.900;6.346;2022-12-18T17:08:29;94681.78;;;23.92;25.45
65359;BME280;52491;45.900;6.346;2022-12-18T17:10:55;94691.41;;;23.93;25.18
65359;BME280;52491;45.900;6.346;2022-12-18T17:13:21;94689.75;;;23.92;25.23
65359;BME280;52491;45.900;6.346;2022-12-18T17:15:50;94690.81;;;23.90;25.18
65359;BME280;52491;45.900;6.346;2022-12-18T17:18:15;94691.63;;;23.91;25.33
65359;BME280;52491;45.900;6.346;2022-12-18T17:20:41;94683.41;;;23.93;25.35
65359;BME280;52491;45.900;6.346;2022-12-18T17:23:06;94695.66;;;23.94;25.17
65359;BME280;52491;45.900;6.346;2022-12-18T17:25:32;94703.44;;;23.95;25.22
65359;BME280;52491;45.900;6.346;2022-12-18T17:27:58;94698.91;;;23.96;25.21
65359;BME280;52491;45.900;6.346;2022-12-18T17:30:23;94691.72;;;23.96;25.34
65359;BME280;52491;45.900;6.346;2022-12-18T17:32:49;94696.25;;;23.96;25.23